createdAt,value
2022-07-25T00:00:10.204Z,19.20
2022-07-25T00:02:58.583Z,19.17
2022-07-25T00:05:26.993Z,19.15
2022-07-25T00:07:54.935Z,19.12
2022-07-25T00:10:23.125Z,19.10
2022-07-25T00:12:51.142Z,19.08
2022-07-25T00:15:19.101Z,19.04
2022-07-25T00:17:47.031Z,19.02
2022-07-25T00:20:15.231Z,19.00
2022-07-25T00:22:43.238Z,18.96
2022-07-25T00:25:12.238Z,18.92
2022-07-25T00:27:40.368Z,18.88
2022-07-25T00:30:09.195Z,18.85
2022-07-25T00:32:37.226Z,18.83
2022-07-25T00:35:05.996Z,18.80
2022-07-25T00:37:34.058Z,18.77
2022-07-25T00:40:03.952Z,18.74
2022-07-25T00:42:32.805Z,18.72
2022-07-25T00:45:01.201Z,18.71
2022-07-25T00:47:29.238Z,18.69
2022-07-25T00:49:57.170Z,18.68
2022-07-25T00:52:25.351Z,18.68
2022-07-25T00:54:53.327Z,18.66
2022-07-25T00:57:21.336Z,18.65
2022-07-25T00:59:49.347Z,18.64
2022-07-25T01:02:17.286Z,18.65
2022-07-25T01:04:45.298Z,18.66
2022-07-25T01:07:13.558Z,18.68
2022-07-25T01:09:41.466Z,18.70
2022-07-25T01:12:09.527Z,18.69
2022-07-25T01:14:39.453Z,18.70
2022-07-25T01:17:07.548Z,18.69
2022-07-25T01:19:35.523Z,18.69
2022-07-25T01:22:03.512Z,18.71
2022-07-25T01:24:31.486Z,18.73
2022-07-25T01:26:59.427Z,18.76
2022-07-25T01:29:27.338Z,18.77
2022-07-25T01:31:55.826Z,18.79
2022-07-25T01:34:23.928Z,18.79
2022-07-25T01:36:51.881Z,18.80
2022-07-25T01:39:19.932Z,18.83
2022-07-25T01:41:48.260Z,18.85
2022-07-25T01:44:17.305Z,18.87
2022-07-25T01:46:45.320Z,18.87
2022-07-25T01:49:13.770Z,18.87
2022-07-25T01:51:41.779Z,18.86
2022-07-25T01:54:10.437Z,18.86
2022-07-25T01:56:43.943Z,18.86
2022-07-25T01:59:14.999Z,18.86
2022-07-25T02:01:43.635Z,18.85
2022-07-25T02:04:12.046Z,18.84
2022-07-25T02:06:41.500Z,18.83
2022-07-25T02:09:09.697Z,18.83
2022-07-25T02:11:37.811Z,18.84
2022-07-25T02:14:06.205Z,18.85
2022-07-25T02:16:34.607Z,18.88
2022-07-25T02:19:04.050Z,18.89
2022-07-25T02:21:35.007Z,18.89
2022-07-25T02:24:04.615Z,18.87
2022-07-25T02:26:33.344Z,18.85
2022-07-25T02:29:01.324Z,18.84
2022-07-25T02:31:29.273Z,18.83
2022-07-25T02:33:57.424Z,18.84
2022-07-25T02:36:25.480Z,18.83
2022-07-25T02:38:53.869Z,18.81
2022-07-25T02:41:21.807Z,18.80
2022-07-25T02:43:50.039Z,18.79
2022-07-25T02:46:18.053Z,18.78
2022-07-25T02:48:46.182Z,18.77
2022-07-25T02:51:14.384Z,18.76
2022-07-25T02:53:58.838Z,18.75
2022-07-25T02:56:30.378Z,18.75
2022-07-25T02:59:00.013Z,18.76
2022-07-25T03:01:28.068Z,18.77
2022-07-25T03:03:56.200Z,18.77
2022-07-25T03:06:24.267Z,18.77
2022-07-25T03:08:52.323Z,18.79
2022-07-25T03:11:21.293Z,18.80
2022-07-25T03:13:49.431Z,18.81
2022-07-25T03:16:17.360Z,18.81
2022-07-25T03:18:45.310Z,18.83
2022-07-25T03:21:13.476Z,18.84
2022-07-25T03:23:41.419Z,18.85
2022-07-25T03:26:09.529Z,18.88
2022-07-25T03:28:37.566Z,18.93
2022-07-25T03:31:05.570Z,18.96
2022-07-25T03:33:33.712Z,18.98
2022-07-25T03:36:01.632Z,19.01
2022-07-25T03:38:29.808Z,19.05
2022-07-25T03:40:57.918Z,19.10
2022-07-25T03:43:25.818Z,19.15
2022-07-25T03:45:53.825Z,19.19
2022-07-25T03:48:22.073Z,19.22
2022-07-25T03:50:50.103Z,19.26
2022-07-25T03:53:18.076Z,19.31
2022-07-25T03:55:46.106Z,19.36
2022-07-25T03:58:14.386Z,19.37
2022-07-25T04:00:42.662Z,19.39
2022-07-25T04:03:12.665Z,19.43
2022-07-25T04:05:45.509Z,19.46
2022-07-25T04:08:15.533Z,19.51
2022-07-25T04:10:44.003Z,19.56
2022-07-25T04:13:12.334Z,19.60
2022-07-25T04:15:40.661Z,19.63
2022-07-25T04:18:08.912Z,19.66
2022-07-25T04:20:41.376Z,19.65
2022-07-25T04:23:11.456Z,19.65
2022-07-25T04:25:39.758Z,19.68
2022-07-25T04:28:08.526Z,19.74
2022-07-25T04:30:37.836Z,19.79
2022-07-25T04:33:06.786Z,19.85
2022-07-25T04:35:35.363Z,19.89
2022-07-25T04:38:11.695Z,19.89
2022-07-25T04:40:41.413Z,19.91
2022-07-25T04:43:09.837Z,19.93
2022-07-25T04:45:39.008Z,19.97
2022-07-25T04:48:07.848Z,20.00
2022-07-25T04:50:36.902Z,20.05
2022-07-25T04:53:07.461Z,20.09
2022-07-25T04:55:39.009Z,20.15
2022-07-25T04:58:08.032Z,20.23
2022-07-25T05:00:36.761Z,20.34
2022-07-25T05:03:09.036Z,20.40
2022-07-25T05:05:38.534Z,20.46
2022-07-25T05:08:52.438Z,20.53
2022-07-25T05:12:43.644Z,20.58
2022-07-25T05:20:38.287Z,20.72
2022-07-25T05:23:06.197Z,20.78
2022-07-25T05:25:34.289Z,20.83
2022-07-25T05:28:03.017Z,20.86
2022-07-25T05:30:32.091Z,20.91
2022-07-25T05:33:02.461Z,21.00
2022-07-25T05:35:30.385Z,21.11
2022-07-25T05:37:58.358Z,21.21
2022-07-25T05:40:26.323Z,21.29
2022-07-25T05:42:56.226Z,21.36
2022-07-25T05:45:27.385Z,21.44
2022-07-25T05:47:55.342Z,21.49
2022-07-25T05:50:23.612Z,21.57
2022-07-25T05:52:51.961Z,21.65
2022-07-25T05:55:19.848Z,21.73
2022-07-25T05:57:47.829Z,21.80
2022-07-25T06:00:16.219Z,21.91
2022-07-25T06:02:44.329Z,22.03
2022-07-25T06:05:12.344Z,22.14
2022-07-25T06:07:41.299Z,22.24
2022-07-25T06:10:10.327Z,22.33
2022-07-25T06:12:38.447Z,22.36
2022-07-25T06:15:07.148Z,22.42
2022-07-25T06:17:40.611Z,22.51
2022-07-25T06:20:09.233Z,22.59
2022-07-25T06:22:37.209Z,22.69
2022-07-25T06:25:05.604Z,22.78
2022-07-25T06:27:33.699Z,22.85
2022-07-25T06:30:04.016Z,22.92
2022-07-25T06:32:31.984Z,23.00
2022-07-25T06:35:00.059Z,23.05
2022-07-25T06:37:28.069Z,23.09
2022-07-25T06:39:56.011Z,23.17
2022-07-25T06:42:24.067Z,23.29
2022-07-25T06:44:51.959Z,23.44
2022-07-25T06:47:19.992Z,23.56
2022-07-25T06:49:47.946Z,23.68
2022-07-25T06:52:16.066Z,23.84
2022-07-25T06:54:44.131Z,23.97
2022-07-25T06:57:12.355Z,24.08
2022-07-25T06:59:40.313Z,24.18
2022-07-25T07:02:08.236Z,24.30
2022-07-25T07:04:36.158Z,24.42
2022-07-25T07:07:04.304Z,24.58
2022-07-25T07:09:32.290Z,24.73
2022-07-25T07:12:00.325Z,24.89
2022-07-25T07:14:28.338Z,25.04
2022-07-25T07:16:56.806Z,25.16
2022-07-25T07:19:25.091Z,25.28
2022-07-25T07:21:53.607Z,25.42
2022-07-25T07:24:24.668Z,25.60
2022-07-25T07:26:54.110Z,25.76
2022-07-25T07:29:22.118Z,25.90
2022-07-25T07:31:50.167Z,26.05
2022-07-25T07:34:18.295Z,26.24
2022-07-25T07:36:46.291Z,26.39
2022-07-25T07:39:14.883Z,26.53
2022-07-25T07:41:42.796Z,26.66
2022-07-25T07:44:10.760Z,26.77
2022-07-25T07:46:38.771Z,26.87
2022-07-25T07:49:07.254Z,26.91
2022-07-25T07:51:35.646Z,26.97
2022-07-25T07:54:22.184Z,27.03
2022-07-25T07:56:50.466Z,27.13
2022-07-25T07:59:18.451Z,27.25
2022-07-25T08:01:46.638Z,27.38
2022-07-25T08:04:15.622Z,27.50
2022-07-25T08:06:43.601Z,27.63
2022-07-25T08:09:11.557Z,27.77
2022-07-25T08:11:39.848Z,27.95
2022-07-25T08:14:08.085Z,28.13
2022-07-25T08:16:36.514Z,28.26
2022-07-25T08:19:04.656Z,28.38
2022-07-25T08:21:32.615Z,28.48
2022-07-25T08:24:00.777Z,28.62
2022-07-25T08:26:30.568Z,28.78
2022-07-25T08:29:17.500Z,28.93
2022-07-25T08:31:47.080Z,29.08
2022-07-25T08:34:15.178Z,29.22
2022-07-25T08:36:43.807Z,29.38
2022-07-25T08:39:11.770Z,29.49
2022-07-25T08:41:43.295Z,29.55
2022-07-25T08:44:11.195Z,29.63
2022-07-25T08:46:41.810Z,29.73
2022-07-25T08:49:10.578Z,29.80
2022-07-25T08:51:39.811Z,29.80
2022-07-25T08:54:08.342Z,29.83
2022-07-25T08:56:36.710Z,29.89
2022-07-25T08:59:05.002Z,29.99
2022-07-25T09:01:34.893Z,30.03
2022-07-25T09:04:04.122Z,30.01
2022-07-25T09:06:32.365Z,30.03
2022-07-25T09:09:01.023Z,30.08
2022-07-25T09:11:37.012Z,30.16
2022-07-25T09:14:08.912Z,30.26
2022-07-25T09:16:40.942Z,30.38
2022-07-25T09:19:14.209Z,30.54
2022-07-25T09:21:45.691Z,30.65
2022-07-25T09:24:18.523Z,30.74
2022-07-25T09:26:49.078Z,30.84
2022-07-25T09:29:31.317Z,30.90
2022-07-25T09:32:00.464Z,31.00
2022-07-25T09:34:48.128Z,31.06
2022-07-25T09:37:18.570Z,31.11
2022-07-25T09:39:50.878Z,31.16
2022-07-25T09:42:21.520Z,31.25
2022-07-25T09:45:01.342Z,31.34
2022-07-25T09:47:30.733Z,31.47
2022-07-25T09:49:58.725Z,31.60
2022-07-25T09:52:26.663Z,31.66
2022-07-25T09:54:54.981Z,31.70
2022-07-25T09:57:26.360Z,31.82
2022-07-25T09:59:56.045Z,31.99
2022-07-25T10:02:42.211Z,32.13
2022-07-25T10:05:16.382Z,32.26
2022-07-25T10:07:49.443Z,32.40
2022-07-25T10:10:23.828Z,32.54
2022-07-25T10:13:15.215Z,32.62
2022-07-25T10:15:43.110Z,32.71
2022-07-25T10:18:11.830Z,32.82
2022-07-25T10:20:39.953Z,32.92
2022-07-25T10:23:28.089Z,33.08
2022-07-25T10:26:16.235Z,33.26
2022-07-25T10:28:45.523Z,33.37
2022-07-25T10:31:39.681Z,33.51
2022-07-25T10:34:11.111Z,33.61
2022-07-25T10:36:56.102Z,33.72
2022-07-25T10:39:24.301Z,33.92
2022-07-25T10:42:02.919Z,34.09
2022-07-25T10:44:45.547Z,34.23
2022-07-25T10:47:14.879Z,34.39
2022-07-25T10:50:15.129Z,34.45
2022-07-25T10:52:42.539Z,34.55
2022-07-25T10:55:10.506Z,34.62
2022-07-25T10:57:49.803Z,34.66
2022-07-25T11:00:23.134Z,34.64
2022-07-25T11:02:51.197Z,34.70
2022-07-25T11:05:19.268Z,34.75
2022-07-25T11:08:19.135Z,34.80
2022-07-25T11:10:40.484Z,34.95
2022-07-25T11:13:15.256Z,35.10
2022-07-25T11:15:44.523Z,35.19
2022-07-25T11:18:12.491Z,35.31
2022-07-25T11:20:40.432Z,35.41
2022-07-25T11:23:08.663Z,35.44
2022-07-25T11:25:36.626Z,35.52
2022-07-25T11:28:04.833Z,35.62
2022-07-25T11:30:32.774Z,35.71
2022-07-25T11:33:02.262Z,35.81
2022-07-25T11:35:32.263Z,35.92
2022-07-25T11:38:02.436Z,35.98
2022-07-25T11:40:32.987Z,36.00
2022-07-25T11:43:01.069Z,36.01
2022-07-25T11:45:31.198Z,35.95
2022-07-25T11:48:02.589Z,35.95
2022-07-25T11:50:32.143Z,35.96
2022-07-25T11:53:09.009Z,35.98
2022-07-25T11:55:40.869Z,36.09
2022-07-25T11:58:10.288Z,36.19
2022-07-25T12:00:44.788Z,36.29
2022-07-25T12:03:20.234Z,36.42
2022-07-25T12:05:49.328Z,36.56
2022-07-25T12:08:23.005Z,36.66
2022-07-25T12:10:51.843Z,36.70
2022-07-25T12:13:30.395Z,36.62
2022-07-25T12:15:59.574Z,36.45
2022-07-25T12:18:27.940Z,36.37
2022-07-25T12:20:56.076Z,36.40
2022-07-25T12:23:24.014Z,36.47
2022-07-25T12:25:51.961Z,36.57
2022-07-25T12:28:19.943Z,36.61
2022-07-25T12:30:52.903Z,36.67
2022-07-25T12:33:24.311Z,36.77
2022-07-25T12:35:52.302Z,36.92
2022-07-25T12:38:20.433Z,37.02
2022-07-25T12:40:48.617Z,37.06
2022-07-25T12:43:17.015Z,37.14
2022-07-25T12:45:45.118Z,37.20
2022-07-25T12:48:14.912Z,37.21
2022-07-25T12:50:43.823Z,37.18
2022-07-25T12:53:13.575Z,37.13
2022-07-25T12:55:41.922Z,37.09
2022-07-25T12:58:10.107Z,37.03
2022-07-25T13:00:38.132Z,36.85
2022-07-25T13:03:06.061Z,36.78
2022-07-25T13:05:34.072Z,36.85
2022-07-25T13:08:05.120Z,36.96
2022-07-25T13:10:33.208Z,37.05
2022-07-25T13:13:01.224Z,37.19
2022-07-25T13:15:30.300Z,37.31
2022-07-25T13:17:58.251Z,37.31
2022-07-25T13:20:26.301Z,37.43
2022-07-25T13:22:54.248Z,37.61
2022-07-25T13:25:22.124Z,37.83
2022-07-25T13:27:50.100Z,37.99
2022-07-25T13:30:18.133Z,38.03
2022-07-25T13:32:46.405Z,38.09
2022-07-25T13:35:17.788Z,38.21
2022-07-25T13:37:48.587Z,38.32
2022-07-25T13:40:16.636Z,38.38
2022-07-25T13:42:44.894Z,38.49
2022-07-25T13:45:12.868Z,38.57
2022-07-25T13:47:40.803Z,38.57
2022-07-25T13:50:09.342Z,38.62
2022-07-25T13:52:37.875Z,38.76
2022-07-25T13:55:06.381Z,38.92
2022-07-25T13:57:34.384Z,39.09
2022-07-25T14:00:02.559Z,39.23
2022-07-25T14:02:32.899Z,39.31
2022-07-25T14:05:03.984Z,39.43
2022-07-25T14:07:32.370Z,39.60
2022-07-25T14:10:00.397Z,39.75
2022-07-25T14:12:28.679Z,39.92
2022-07-25T14:14:56.958Z,40.04
2022-07-25T14:17:29.932Z,40.13
2022-07-25T14:19:58.537Z,40.22
2022-07-25T14:22:26.682Z,40.36
2022-07-25T14:24:54.625Z,40.56
2022-07-25T14:27:22.808Z,40.68
2022-07-25T14:29:51.031Z,40.72
2022-07-25T14:32:19.689Z,40.81
2022-07-25T14:34:47.669Z,40.81
2022-07-25T14:37:15.863Z,40.82
2022-07-25T14:39:44.769Z,40.90
2022-07-25T14:42:12.873Z,41.14
2022-07-25T14:44:41.095Z,41.49
2022-07-25T14:47:12.869Z,41.74
2022-07-25T14:49:43.868Z,42.03
2022-07-25T14:52:12.970Z,42.27
2022-07-25T14:54:41.576Z,42.58
2022-07-25T14:57:09.871Z,42.85
2022-07-25T14:59:37.802Z,43.04
2022-07-25T15:02:05.775Z,43.29
2022-07-25T15:04:34.072Z,43.57
2022-07-25T15:07:02.073Z,43.86
2022-07-25T15:09:32.817Z,44.21
2022-07-25T15:12:00.890Z,44.54
2022-07-25T15:14:29.418Z,44.86
2022-07-25T15:16:57.431Z,45.17
2022-07-25T15:19:26.146Z,45.61
2022-07-25T15:21:54.528Z,46.05
2022-07-25T15:24:28.650Z,46.36
2022-07-25T15:26:58.124Z,46.54
2022-07-25T15:29:27.785Z,46.60
2022-07-25T15:31:55.739Z,46.87
2022-07-25T15:34:23.786Z,47.26
2022-07-25T15:36:52.268Z,47.69
2022-07-25T15:39:20.227Z,48.14
2022-07-25T15:41:48.242Z,48.58
2022-07-25T15:44:16.554Z,48.95
2022-07-25T15:46:45.323Z,49.31
2022-07-25T15:49:15.217Z,49.57
2022-07-25T15:51:43.427Z,49.89
2022-07-25T15:54:11.466Z,50.09
2022-07-25T15:56:39.780Z,50.10
2022-07-25T15:59:08.035Z,50.22
2022-07-25T16:01:36.379Z,50.51
2022-07-25T16:04:04.596Z,50.96
2022-07-25T16:06:32.656Z,51.45
2022-07-25T16:09:00.891Z,51.84
2022-07-25T16:11:28.900Z,52.18
2022-07-25T16:13:56.868Z,52.43
2022-07-25T16:16:25.769Z,52.47
2022-07-25T16:18:53.828Z,52.57
2022-07-25T16:21:21.967Z,52.79
2022-07-25T16:23:49.975Z,52.98
2022-07-25T16:26:18.149Z,53.12
2022-07-25T16:28:47.776Z,53.32
2022-07-25T16:31:15.824Z,53.59
2022-07-25T16:33:43.905Z,53.86
2022-07-25T16:36:11.847Z,54.15
2022-07-25T16:38:40.010Z,54.41
2022-07-25T16:41:07.922Z,54.55
2022-07-25T16:43:35.837Z,54.70
2022-07-25T16:46:04.005Z,54.91
2022-07-25T16:48:32.260Z,55.08
2022-07-25T16:51:00.257Z,55.13
2022-07-25T16:53:28.213Z,55.14
2022-07-25T16:55:56.288Z,55.14
2022-07-25T16:58:24.292Z,55.25
2022-07-25T17:00:52.219Z,55.31
2022-07-25T17:03:20.540Z,55.40
2022-07-25T17:05:51.665Z,55.73
2022-07-25T17:08:19.907Z,56.13
2022-07-25T17:10:47.868Z,56.37
2022-07-25T17:13:15.835Z,56.39
2022-07-25T17:15:45.553Z,56.36
2022-07-25T17:18:14.539Z,56.44
2022-07-25T17:20:42.678Z,56.64
2022-07-25T17:23:11.224Z,56.72
2022-07-25T17:25:40.428Z,56.56
2022-07-25T17:28:09.073Z,56.59
2022-07-25T17:30:37.060Z,56.86
2022-07-25T17:33:05.263Z,57.01
2022-07-25T17:35:33.214Z,56.96
2022-07-25T17:38:01.587Z,56.98
2022-07-25T17:40:29.610Z,56.84
2022-07-25T17:42:57.819Z,56.45
2022-07-25T17:45:26.131Z,56.04
2022-07-25T17:47:54.389Z,55.00
2022-07-25T17:50:29.416Z,53.24
2022-07-25T17:52:59.653Z,51.24
2022-07-25T17:55:28.633Z,49.42
2022-07-25T17:57:59.798Z,47.82
2022-07-25T18:00:27.744Z,46.27
2022-07-25T18:02:55.962Z,44.86
2022-07-25T18:05:24.439Z,43.62
2022-07-25T18:07:53.586Z,42.52
2022-07-25T18:10:22.026Z,41.55
2022-07-25T18:12:51.006Z,40.70
2022-07-25T18:15:19.155Z,39.89
2022-07-25T18:17:48.295Z,39.16
2022-07-25T18:20:16.456Z,38.48
2022-07-25T18:22:45.336Z,37.85
2022-07-25T18:25:14.283Z,37.29
2022-07-25T18:27:44.003Z,36.77
2022-07-25T18:30:13.658Z,36.30
2022-07-25T18:32:42.754Z,35.86
2022-07-25T18:35:11.469Z,35.45
2022-07-25T18:37:40.063Z,35.06
2022-07-25T18:40:09.304Z,34.71
2022-07-25T18:42:37.882Z,34.37
2022-07-25T18:45:06.377Z,34.07
2022-07-25T18:47:35.151Z,33.76
2022-07-25T18:50:04.487Z,33.50
2022-07-25T18:52:35.101Z,33.24
2022-07-25T18:55:09.149Z,32.97
2022-07-25T18:57:37.170Z,32.72
2022-07-25T19:00:07.377Z,32.49
2022-07-25T19:02:35.663Z,32.27
2022-07-25T19:05:03.881Z,32.05
2022-07-25T19:07:33.796Z,31.83
2022-07-25T19:10:02.192Z,31.64
2022-07-25T19:12:30.137Z,31.43
2022-07-25T19:14:58.264Z,31.24
2022-07-25T19:17:26.250Z,31.03
2022-07-25T19:19:54.349Z,30.83
2022-07-25T19:22:22.398Z,30.61
2022-07-25T19:24:50.566Z,30.42
2022-07-25T19:27:19.432Z,30.24
2022-07-25T19:29:47.442Z,30.07
2022-07-25T19:32:16.101Z,29.91
2022-07-25T19:34:46.346Z,29.73
2022-07-25T19:37:14.443Z,29.57
2022-07-25T19:39:42.470Z,29.41
2022-07-25T19:42:12.312Z,29.25
2022-07-25T19:44:40.471Z,29.09
2022-07-25T19:47:11.851Z,28.95
2022-07-25T19:49:40.782Z,28.79
2022-07-25T19:52:10.015Z,28.66
2022-07-25T19:54:38.801Z,28.50
2022-07-25T19:57:07.324Z,28.35
2022-07-25T19:59:35.739Z,28.21
2022-07-25T20:02:04.987Z,28.07
2022-07-25T20:04:33.027Z,27.94
2022-07-25T20:07:02.615Z,27.80
2022-07-25T20:09:31.321Z,27.66
2022-07-25T20:12:00.841Z,27.53
2022-07-25T20:14:28.888Z,27.41
2022-07-25T20:16:57.907Z,27.29
2022-07-25T20:19:26.096Z,27.19
2022-07-25T20:21:54.627Z,27.11
2022-07-25T20:24:22.569Z,27.02
2022-07-25T20:26:50.524Z,26.93
2022-07-25T20:29:18.572Z,26.86
2022-07-25T20:31:46.658Z,26.78
2022-07-25T20:34:15.542Z,26.72
2022-07-25T20:36:43.703Z,26.67
2022-07-25T20:39:11.789Z,26.62
2022-07-25T20:41:41.179Z,26.56
2022-07-25T20:44:09.284Z,26.52
2022-07-25T20:46:37.538Z,26.50
2022-07-25T20:49:08.728Z,26.50
2022-07-25T20:51:41.591Z,26.50
2022-07-25T20:54:09.825Z,26.51
2022-07-25T20:56:37.823Z,26.52
2022-07-25T20:59:07.284Z,26.52
2022-07-25T21:01:35.519Z,26.51
2022-07-25T21:04:07.419Z,26.51
2022-07-25T21:06:36.868Z,26.49
2022-07-25T21:09:06.263Z,26.47
2022-07-25T21:11:35.764Z,26.46
2022-07-25T21:14:05.355Z,26.44
2022-07-25T21:16:33.804Z,26.42
2022-07-25T21:19:01.827Z,26.38
2022-07-25T21:21:29.879Z,26.35
2022-07-25T21:23:57.846Z,26.33
2022-07-25T21:26:25.861Z,26.29
2022-07-25T21:28:53.793Z,26.26
2022-07-25T21:31:23.073Z,26.22
2022-07-25T21:33:51.036Z,26.18
2022-07-25T21:36:19.222Z,26.15
2022-07-25T21:38:47.357Z,26.13
2022-07-25T21:41:15.452Z,26.09
2022-07-25T21:43:44.316Z,26.05
2022-07-25T21:46:12.574Z,26.00
2022-07-25T21:48:59.136Z,25.96
2022-07-25T21:51:36.792Z,25.92
2022-07-25T21:54:09.324Z,25.88
2022-07-25T21:56:37.688Z,25.84
2022-07-25T21:59:06.581Z,25.81
2022-07-25T22:01:36.356Z,25.77
2022-07-25T22:04:05.194Z,25.71
2022-07-25T22:06:33.221Z,25.66
2022-07-25T22:09:01.626Z,25.62
2022-07-25T22:11:42.845Z,25.59
2022-07-25T22:14:15.479Z,25.56
2022-07-25T22:16:43.589Z,25.53
2022-07-25T22:19:11.810Z,25.48
2022-07-25T22:21:44.150Z,25.42
2022-07-25T22:24:12.079Z,25.37
2022-07-25T22:26:40.013Z,25.34
2022-07-25T22:29:08.834Z,25.28
2022-07-25T22:31:38.945Z,25.21
2022-07-25T22:34:06.941Z,25.16
2022-07-25T22:36:37.445Z,25.14
2022-07-25T22:39:05.938Z,25.12
2022-07-25T22:41:34.128Z,25.11
2022-07-25T22:44:01.959Z,25.11
2022-07-25T22:46:30.492Z,25.10
2022-07-25T22:48:59.134Z,25.09
2022-07-25T22:51:28.934Z,25.06
2022-07-25T22:53:57.694Z,25.04
2022-07-25T22:56:26.114Z,25.02
2022-07-25T22:58:54.257Z,25.01
2022-07-25T23:01:23.011Z,25.01
2022-07-25T23:03:51.894Z,25.00
2022-07-25T23:06:21.165Z,25.00
2022-07-25T23:08:49.304Z,25.01
2022-07-25T23:11:17.768Z,25.02
2022-07-25T23:13:45.725Z,25.03
2022-07-25T23:16:13.893Z,25.04
2022-07-25T23:18:41.681Z,25.02
2022-07-25T23:21:09.800Z,25.02
2022-07-25T23:23:37.685Z,25.01
2022-07-25T23:26:05.465Z,24.99
2022-07-25T23:28:33.230Z,24.98
2022-07-25T23:31:01.506Z,24.98
2022-07-25T23:33:29.901Z,24.97
2022-07-25T23:35:58.161Z,24.94
2022-07-25T23:38:25.937Z,24.92
2022-07-25T23:40:54.912Z,24.91
2022-07-25T23:43:56.497Z,24.90
2022-07-25T23:46:10.531Z,24.87
2022-07-25T23:48:39.631Z,24.86
2022-07-25T23:51:07.893Z,24.83
2022-07-25T23:53:36.363Z,24.82
2022-07-25T23:56:04.644Z,24.80
2022-07-25T23:58:32.508Z,24.77
